sensor_id;sensor_type;location;lat;lon;timestamp;temperature;humidity
47482;DHT22;33219;47.410;9.730;2022-11-20T00:00:57;5.60;99.90
47482;DHT22;33219;47.410;9.730;2022-11-20T00:03:24;5.60;99.90
47482;DHT22;33219;47.410;9.730;2022-11-20T00:05:52;5.60;99.90
47482;DHT22;33219;47.410;9.730;2022-11-20T00:08:20;5.60;99.90
47482;DHT22;33219;47.410;9.730;2022-11-20T00:10:47;5.60;99.90
47482;DHT22;33219;47.410;9.730;2022-11-20T00:13:15;5.60;99.90
47482;DHT22;33219;47.410;9.730;2022-11-20T00:15:43;5.60;99.90
47482;DHT22;33219;47.410;9.730;2022-11-20T00:18:10;5.70;99.90
47482;DHT22;33219;47.410;9.730;2022-11-20T00:20:38;5.70;99.90
47482;DHT22;33219;47.410;9.730;2022-11-20T00:23:05;5.70;99.90
47482;DHT22;33219;47.410;9.730;2022-11-20T00:25:36;5.70;99.90
47482;DHT22;33219;47.410;9.730;2022-11-20T00:28:03;5.70;99.90
47482;DHT22;33219;47.410;9.730;2022-11-20T00:30:31;5.70;99.90
47482;DHT22;33219;47.410;9.730;2022-11-20T00:32:58;5.70;99.90
47482;DHT22;33219;47.410;9.730;2022-11-20T00:35:26;5.70;99.90
47482;DHT22;33219;47.410;9.730;2022-11-20T00:37:54;5.70;99.90
47482;DHT22;33219;47.410;9.730;2022-11-20T00:40:21;5.70;99.90
47482;DHT22;33219;47.410;9.730;2022-11-20T00:42:49;5.70;99.90
47482;DHT22;33219;47.410;9.730;2022-11-20T00:45:16;5.70;99.90
47482;DHT22;33219;47.410;9.730;2022-11-20T00:47:44;5.70;99.90
47482;DHT22;33219;47.410;9.730;2022-11-20T00:50:11;5.70;99.90
47482;DHT22;33219;47.410;9.730;2022-11-20T00:52:42;5.70;99.90
47482;DHT22;33219;47.410;9.730;2022-11-20T00:55:09;5.70;99.90
47482;DHT22;33219;47.410;9.730;2022-11-20T00:57:37;5.70;99.90
47482;DHT22;33219;47.410;9.730;2022-11-20T01:00:05;5.70;99.90
47482;DHT22;33219;47.410;9.730;2022-11-20T01:02:33;5.70;99.90
47482;DHT22;33219;47.410;9.730;2022-11-20T01:05:00;5.70;99.90
47482;DHT22;33219;47.410;9.730;2022-11-20T01:07:28;5.70;99.90
47482;DHT22;33219;47.410;9.730;2022-11-20T01:09:56;5.70;99.90
47482;DHT22;33219;47.410;9.730;2022-11-20T01:12:23;5.70;99.90
47482;DHT22;33219;47.410;9.730;2022-11-20T01:14:51;5.70;99.90
47482;DHT22;33219;47.410;9.730;2022-11-20T01:17:18;5.70;99.90
47482;DHT22;33219;47.410;9.730;2022-11-20T01:19:50;5.70;99.90
47482;DHT22;33219;47.410;9.730;2022-11-20T01:22:18;5.80;99.90
47482;DHT22;33219;47.410;9.730;2022-11-20T01:24:45;5.80;99.90
47482;DHT22;33219;47.410;9.730;2022-11-20T01:27:13;5.80;99.90
47482;DHT22;33219;47.410;9.730;2022-11-20T01:29:41;5.80;99.90
47482;DHT22;33219;47.410;9.730;2022-11-20T01:32:08;5.80;99.90
47482;DHT22;33219;47.410;9.730;2022-11-20T01:34:36;5.90;99.90
47482;DHT22;33219;47.410;9.730;2022-11-20T01:37:03;5.90;99.90
47482;DHT22;33219;47.410;9.730;2022-11-20T01:39:31;5.80;99.90
47482;DHT22;33219;47.410;9.730;2022-11-20T01:41:58;5.80;99.90
47482;DHT22;33219;47.410;9.730;2022-11-20T01:44:58;5.80;99.90
47482;DHT22;33219;47.410;9.730;2022-11-20T01:47:37;5.80;99.90
47482;DHT22;33219;47.410;9.730;2022-11-20T01:52:41;5.70;99.90
47482;DHT22;33219;47.410;9.730;2022-11-20T01:55:15;5.70;99.90
47482;DHT22;33219;47.410;9.730;2022-11-20T01:57:45;5.70;99.90
47482;DHT22;33219;47.410;9.730;2022-11-20T02:00:17;5.60;99.90
47482;DHT22;33219;47.410;9.730;2022-11-20T02:03:01;5.70;99.90
47482;DHT22;33219;47.410;9.730;2022-11-20T02:07:58;5.70;99.90
47482;DHT22;33219;47.410;9.730;2022-11-20T02:10:27;5.60;99.90
47482;DHT22;33219;47.410;9.730;2022-11-20T02:12:55;5.60;99.90
47482;DHT22;33219;47.410;9.730;2022-11-20T02:15:41;5.60;99.90
47482;DHT22;33219;47.410;9.730;2022-11-20T02:18:09;5.60;99.90
47482;DHT22;33219;47.410;9.730;2022-11-20T02:20:39;5.50;99.90
47482;DHT22;33219;47.410;9.730;2022-11-20T02:23:11;5.50;99.90
47482;DHT22;33219;47.410;9.730;2022-11-20T02:25:38;5.60;99.90
47482;DHT22;33219;47.410;9.730;2022-11-20T02:28:06;5.50;99.90
47482;DHT22;33219;47.410;9.730;2022-11-20T02:30:34;5.50;99.90
47482;DHT22;33219;47.410;9.730;2022-11-20T02:33:01;5.50;99.90
47482;DHT22;33219;47.410;9.730;2022-11-20T02:38:01;5.50;99.90
47482;DHT22;33219;47.410;9.730;2022-11-20T02:40:29;5.50;99.90
47482;DHT22;33219;47.410;9.730;2022-11-20T02:42:57;5.50;99.90
47482;DHT22;33219;47.410;9.730;2022-11-20T02:45:25;5.50;99.90
47482;DHT22;33219;47.410;9.730;2022-11-20T02:47:53;5.50;99.90
47482;DHT22;33219;47.410;9.730;2022-11-20T02:50:21;5.50;99.90
47482;DHT22;33219;47.410;9.730;2022-11-20T02:52:48;5.50;99.90
47482;DHT22;33219;47.410;9.730;2022-11-20T02:55:16;5.50;99.90
47482;DHT22;33219;47.410;9.730;2022-11-20T02:57:43;5.50;99.90
47482;DHT22;33219;47.410;9.730;2022-11-20T03:00:11;5.50;99.90
47482;DHT22;33219;47.410;9.730;2022-11-20T03:02:39;5.50;99.90
47482;DHT22;33219;47.410;9.730;2022-11-20T03:05:07;5.50;99.90
47482;DHT22;33219;47.410;9.730;2022-11-20T03:07:34;5.50;99.90
47482;DHT22;33219;47.410;9.730;2022-11-20T03:10:02;5.50;99.90
47482;DHT22;33219;47.410;9.730;2022-11-20T03:12:30;5.40;99.90
47482;DHT22;33219;47.410;9.730;2022-11-20T03:14:57;5.40;99.90
47482;DHT22;33219;47.410;9.730;2022-11-20T03:17:25;5.40;99.90
47482;DHT22;33219;47.410;9.730;2022-11-20T03:19:53;5.40;99.90
47482;DHT22;33219;47.410;9.730;2022-11-20T03:22:20;5.40;99.90
47482;DHT22;33219;47.410;9.730;2022-11-20T03:24:48;5.40;99.90
47482;DHT22;33219;47.410;9.730;2022-11-20T03:27:16;5.40;99.90
47482;DHT22;33219;47.410;9.730;2022-11-20T03:29:43;5.40;99.90
47482;DHT22;33219;47.410;9.730;2022-11-20T03:32:11;5.40;99.90
47482;DHT22;33219;47.410;9.730;2022-11-20T03:34:38;5.40;99.90
47482;DHT22;33219;47.410;9.730;2022-11-20T03:37:06;5.40;99.90
47482;DHT22;33219;47.410;9.730;2022-11-20T03:39:34;5.40;99.90
47482;DHT22;33219;47.410;9.730;2022-11-20T03:42:01;5.40;99.90
47482;DHT22;33219;47.410;9.730;2022-11-20T03:44:31;5.40;99.90
47482;DHT22;33219;47.410;9.730;2022-11-20T03:46:58;5.40;99.90
47482;DHT22;33219;47.410;9.730;2022-11-20T03:49:26;5.50;99.90
47482;DHT22;33219;47.410;9.730;2022-11-20T03:51:53;5.50;99.90
47482;DHT22;33219;47.410;9.730;2022-11-20T03:54:21;5.50;99.90
47482;DHT22;33219;47.410;9.730;2022-11-20T03:56:48;5.50;99.90
47482;DHT22;33219;47.410;9.730;2022-11-20T03:59:16;5.50;99.90
47482;DHT22;33219;47.410;9.730;2022-11-20T04:01:43;5.50;99.90
47482;DHT22;33219;47.410;9.730;2022-11-20T04:04:11;5.50;99.90
47482;DHT22;33219;47.410;9.730;2022-11-20T04:06:38;5.50;99.90
47482;DHT22;33219;47.410;9.730;2022-11-20T04:09:06;5.60;99.90
47482;DHT22;33219;47.410;9.730;2022-11-20T04:11:36;5.60;99.90
47482;DHT22;33219;47.410;9.730;2022-11-20T04:14:06;5.50;99.90
47482;DHT22;33219;47.410;9.730;2022-11-20T04:16:35;5.60;99.90
47482;DHT22;33219;47.410;9.730;2022-11-20T04:19:05;5.60;99.90
47482;DHT22;33219;47.410;9.730;2022-11-20T04:21:33;5.60;99.90
47482;DHT22;33219;47.410;9.730;2022-11-20T04:24:01;5.60;99.90
47482;DHT22;33219;47.410;9.730;2022-11-20T04:26:30;5.60;99.90
47482;DHT22;33219;47.410;9.730;2022-11-20T04:28:58;5.60;99.90
47482;DHT22;33219;47.410;9.730;2022-11-20T04:31:30;5.60;99.90
47482;DHT22;33219;47.410;9.730;2022-11-20T04:34:02;5.60;99.90
47482;DHT22;33219;47.410;9.730;2022-11-20T04:36:31;5.60;99.90
47482;DHT22;33219;47.410;9.730;2022-11-20T04:39:01;5.60;99.90
47482;DHT22;33219;47.410;9.730;2022-11-20T04:41:31;5.70;99.90
47482;DHT22;33219;47.410;9.730;2022-11-20T04:44:00;5.60;99.90
47482;DHT22;33219;47.410;9.730;2022-11-20T04:46:34;5.60;99.90
47482;DHT22;33219;47.410;9.730;2022-11-20T04:49:03;5.60;99.90
47482;DHT22;33219;47.410;9.730;2022-11-20T04:51:30;5.60;99.90
47482;DHT22;33219;47.410;9.730;2022-11-20T04:53:58;5.60;99.90
47482;DHT22;33219;47.410;9.730;2022-11-20T04:56:26;5.60;99.90
47482;DHT22;33219;47.410;9.730;2022-11-20T04:58:53;5.60;99.90
47482;DHT22;33219;47.410;9.730;2022-11-20T05:01:22;5.60;99.90
47482;DHT22;33219;47.410;9.730;2022-11-20T05:03:51;5.60;99.90
47482;DHT22;33219;47.410;9.730;2022-11-20T05:06:24;5.60;99.90
47482;DHT22;33219;47.410;9.730;2022-11-20T05:08:51;5.60;99.90
47482;DHT22;33219;47.410;9.730;2022-11-20T05:11:20;5.60;99.90
47482;DHT22;33219;47.410;9.730;2022-11-20T05:13:49;5.50;99.90
47482;DHT22;33219;47.410;9.730;2022-11-20T05:16:19;5.50;99.90
47482;DHT22;33219;47.410;9.730;2022-11-20T05:18:47;5.50;99.90
47482;DHT22;33219;47.410;9.730;2022-11-20T05:21:16;5.60;99.90
47482;DHT22;33219;47.410;9.730;2022-11-20T05:23:44;5.50;99.90
47482;DHT22;33219;47.410;9.730;2022-11-20T05:26:19;5.50;99.90
47482;DHT22;33219;47.410;9.730;2022-11-20T05:28:43;5.50;99.90
47482;DHT22;33219;47.410;9.730;2022-11-20T05:31:13;5.50;99.90
47482;DHT22;33219;47.410;9.730;2022-11-20T05:33:43;5.50;99.90
47482;DHT22;33219;47.410;9.730;2022-11-20T05:36:12;5.60;99.90
47482;DHT22;33219;47.410;9.730;2022-11-20T05:38:41;5.60;99.90
47482;DHT22;33219;47.410;9.730;2022-11-20T05:41:11;5.60;99.90
47482;DHT22;33219;47.410;9.730;2022-11-20T05:43:40;5.60;99.90
47482;DHT22;33219;47.410;9.730;2022-11-20T05:46:10;5.60;99.90
47482;DHT22;33219;47.410;9.730;2022-11-20T05:48:39;5.50;99.90
47482;DHT22;33219;47.410;9.730;2022-11-20T05:51:09;5.50;99.90
47482;DHT22;33219;47.410;9.730;2022-11-20T05:53:37;5.50;99.90
47482;DHT22;33219;47.410;9.730;2022-11-20T05:56:10;5.50;99.90
47482;DHT22;33219;47.410;9.730;2022-11-20T05:58:38;5.50;99.90
47482;DHT22;33219;47.410;9.730;2022-11-20T06:01:14;5.50;99.90
47482;DHT22;33219;47.410;9.730;2022-11-20T06:03:42;5.40;99.90
47482;DHT22;33219;47.410;9.730;2022-11-20T06:06:13;5.40;99.90
47482;DHT22;33219;47.410;9.730;2022-11-20T06:08:41;5.40;99.90
47482;DHT22;33219;47.410;9.730;2022-11-20T06:11:10;5.40;99.90
47482;DHT22;33219;47.410;9.730;2022-11-20T06:13:39;5.40;99.90
47482;DHT22;33219;47.410;9.730;2022-11-20T06:16:06;5.40;99.90
47482;DHT22;33219;47.410;9.730;2022-11-20T06:18:34;5.30;99.90
47482;DHT22;33219;47.410;9.730;2022-11-20T06:21:04;5.30;99.90
47482;DHT22;33219;47.410;9.730;2022-11-20T06:23:33;5.30;99.90
47482;DHT22;33219;47.410;9.730;2022-11-20T06:26:07;5.30;99.90
47482;DHT22;33219;47.410;9.730;2022-11-20T06:28:31;5.30;99.90
47482;DHT22;33219;47.410;9.730;2022-11-20T06:30:59;5.30;99.90
47482;DHT22;33219;47.410;9.730;2022-11-20T06:33:27;5.30;99.90
47482;DHT22;33219;47.410;9.730;2022-11-20T06:35:59;5.30;99.90
47482;DHT22;33219;47.410;9.730;2022-11-20T06:38:27;5.30;99.90
47482;DHT22;33219;47.410;9.730;2022-11-20T06:40:55;5.30;99.90
47482;DHT22;33219;47.410;9.730;2022-11-20T06:43:24;5.30;99.90
47482;DHT22;33219;47.410;9.730;2022-11-20T06:45:57;5.30;99.90
47482;DHT22;33219;47.410;9.730;2022-11-20T06:48:25;5.30;99.90
47482;DHT22;33219;47.410;9.730;2022-11-20T06:50:53;5.30;99.90
47482;DHT22;33219;47.410;9.730;2022-11-20T06:53:21;5.40;99.90
47482;DHT22;33219;47.410;9.730;2022-11-20T06:55:49;5.30;99.90
47482;DHT22;33219;47.410;9.730;2022-11-20T06:58:17;5.40;99.90
47482;DHT22;33219;47.410;9.730;2022-11-20T07:00:45;5.40;99.90
47482;DHT22;33219;47.410;9.730;2022-11-20T07:03:13;5.40;99.90
47482;DHT22;33219;47.410;9.730;2022-11-20T07:05:42;5.40;99.90
47482;DHT22;33219;47.410;9.730;2022-11-20T07:08:11;5.40;99.90
47482;DHT22;33219;47.410;9.730;2022-11-20T07:10:39;5.40;99.90
47482;DHT22;33219;47.410;9.730;2022-11-20T07:13:06;5.50;99.90
47482;DHT22;33219;47.410;9.730;2022-11-20T07:15:34;5.50;99.90
47482;DHT22;33219;47.410;9.730;2022-11-20T07:18:01;5.50;99.90
47482;DHT22;33219;47.410;9.730;2022-11-20T07:20:29;5.60;99.90
47482;DHT22;33219;47.410;9.730;2022-11-20T07:22:58;5.60;99.90
47482;DHT22;33219;47.410;9.730;2022-11-20T07:25:26;5.60;99.90
47482;DHT22;33219;47.410;9.730;2022-11-20T07:28:00;5.60;99.90
47482;DHT22;33219;47.410;9.730;2022-11-20T07:30:29;5.60;99.90
47482;DHT22;33219;47.410;9.730;2022-11-20T07:32:57;5.70;99.90
47482;DHT22;33219;47.410;9.730;2022-11-20T07:35:25;5.70;99.90
47482;DHT22;33219;47.410;9.730;2022-11-20T07:37:52;5.70;99.90
47482;DHT22;33219;47.410;9.730;2022-11-20T07:40:20;5.60;99.90
47482;DHT22;33219;47.410;9.730;2022-11-20T07:42:52;5.60;99.90
47482;DHT22;33219;47.410;9.730;2022-11-20T07:45:21;5.60;99.90
47482;DHT22;33219;47.410;9.730;2022-11-20T07:47:48;5.60;99.90
47482;DHT22;33219;47.410;9.730;2022-11-20T07:50:16;5.60;99.90
47482;DHT22;33219;47.410;9.730;2022-11-20T07:52:44;5.60;99.90
47482;DHT22;33219;47.410;9.730;2022-11-20T07:55:12;5.60;99.90
47482;DHT22;33219;47.410;9.730;2022-11-20T07:57:39;5.60;99.90
47482;DHT22;33219;47.410;9.730;2022-11-20T08:00:10;5.60;99.90
47482;DHT22;33219;47.410;9.730;2022-11-20T08:02:38;5.70;99.90
47482;DHT22;33219;47.410;9.730;2022-11-20T08:05:07;5.70;99.90
47482;DHT22;33219;47.410;9.730;2022-11-20T08:07:39;5.80;99.90
47482;DHT22;33219;47.410;9.730;2022-11-20T08:10:08;5.90;99.90
47482;DHT22;33219;47.410;9.730;2022-11-20T08:12:36;5.90;99.90
47482;DHT22;33219;47.410;9.730;2022-11-20T08:15:26;5.90;99.90
47482;DHT22;33219;47.410;9.730;2022-11-20T08:17:50;6.00;99.90
47482;DHT22;33219;47.410;9.730;2022-11-20T08:20:17;5.90;99.90
47482;DHT22;33219;47.410;9.730;2022-11-20T08:22:45;6.00;99.90
47482;DHT22;33219;47.410;9.730;2022-11-20T08:25:13;5.90;99.90
47482;DHT22;33219;47.410;9.730;2022-11-20T08:27:40;5.90;99.90
47482;DHT22;33219;47.410;9.730;2022-11-20T08:30:08;6.00;99.90
47482;DHT22;33219;47.410;9.730;2022-11-20T08:32:36;6.00;99.90
47482;DHT22;33219;47.410;9.730;2022-11-20T08:35:04;6.10;99.90
47482;DHT22;33219;47.410;9.730;2022-11-20T08:37:32;6.20;99.90
47482;DHT22;33219;47.410;9.730;2022-11-20T08:39:59;6.20;99.90
47482;DHT22;33219;47.410;9.730;2022-11-20T08:42:27;6.30;99.90
47482;DHT22;33219;47.410;9.730;2022-11-20T08:44:54;6.40;99.90
47482;DHT22;33219;47.410;9.730;2022-11-20T08:47:22;6.50;99.90
47482;DHT22;33219;47.410;9.730;2022-11-20T08:49:49;6.50;99.90
47482;DHT22;33219;47.410;9.730;2022-11-20T08:52:17;6.50;99.90
47482;DHT22;33219;47.410;9.730;2022-11-20T08:54:44;6.60;99.90
47482;DHT22;33219;47.410;9.730;2022-11-20T08:57:12;6.60;99.90
47482;DHT22;33219;47.410;9.730;2022-11-20T08:59:40;6.70;99.90
47482;DHT22;33219;47.410;9.730;2022-11-20T09:02:08;6.70;99.90
47482;DHT22;33219;47.410;9.730;2022-11-20T09:04:35;6.70;99.90
47482;DHT22;33219;47.410;9.730;2022-11-20T09:07:03;6.70;99.90
47482;DHT22;33219;47.410;9.730;2022-11-20T09:09:31;6.80;99.90
47482;DHT22;33219;47.410;9.730;2022-11-20T09:11:59;6.90;99.90
47482;DHT22;33219;47.410;9.730;2022-11-20T09:14:26;7.00;99.90
47482;DHT22;33219;47.410;9.730;2022-11-20T09:16:56;7.10;99.90
47482;DHT22;33219;47.410;9.730;2022-11-20T09:19:24;7.10;99.90
47482;DHT22;33219;47.410;9.730;2022-11-20T09:21:52;7.20;99.90
47482;DHT22;33219;47.410;9.730;2022-11-20T09:24:20;7.30;99.90
47482;DHT22;33219;47.410;9.730;2022-11-20T09:26:47;7.40;99.90
47482;DHT22;33219;47.410;9.730;2022-11-20T09:29:15;7.50;99.90
47482;DHT22;33219;47.410;9.730;2022-11-20T09:31:42;7.80;99.90
47482;DHT22;33219;47.410;9.730;2022-11-20T09:34:10;8.10;99.90
47482;DHT22;33219;47.410;9.730;2022-11-20T09:36:38;8.30;99.90
47482;DHT22;33219;47.410;9.730;2022-11-20T09:39:05;8.20;99.90
47482;DHT22;33219;47.410;9.730;2022-11-20T09:41:59;8.40;99.90
47482;DHT22;33219;47.410;9.730;2022-11-20T09:44:36;8.40;99.90
47482;DHT22;33219;47.410;9.730;2022-11-20T09:47:23;8.50;99.90
47482;DHT22;33219;47.410;9.730;2022-11-20T09:55:02;8.40;99.90
47482;DHT22;33219;47.410;9.730;2022-11-20T09:57:38;8.20;99.90
47482;DHT22;33219;47.410;9.730;2022-11-20T10:00:12;8.30;99.90
47482;DHT22;33219;47.410;9.730;2022-11-20T10:02:52;8.30;99.90
47482;DHT22;33219;47.410;9.730;2022-11-20T10:05:39;8.30;99.90
47482;DHT22;33219;47.410;9.730;2022-11-20T10:08:25;8.10;99.90
47482;DHT22;33219;47.410;9.730;2022-11-20T10:24:48;8.40;99.90
47482;DHT22;33219;47.410;9.730;2022-11-20T10:30:14;8.30;99.90
47482;DHT22;33219;47.410;9.730;2022-11-20T10:32:46;8.30;99.90
47482;DHT22;33219;47.410;9.730;2022-11-20T10:38:28;8.30;99.90
47482;DHT22;33219;47.410;9.730;2022-11-20T10:40:59;8.40;99.90
47482;DHT22;33219;47.410;9.730;2022-11-20T10:46:26;8.40;99.90
47482;DHT22;33219;47.410;9.730;2022-11-20T10:48:55;8.50;99.90
47482;DHT22;33219;47.410;9.730;2022-11-20T10:54:31;8.60;99.90
47482;DHT22;33219;47.410;9.730;2022-11-20T10:57:10;8.60;99.90
47482;DHT22;33219;47.410;9.730;2022-11-20T11:02:20;8.70;99.90
47482;DHT22;33219;47.410;9.730;2022-11-20T11:04:50;8.80;99.90
47482;DHT22;33219;47.410;9.730;2022-11-20T11:07:27;8.80;99.90
47482;DHT22;33219;47.410;9.730;2022-11-20T11:09:56;8.80;99.90
47482;DHT22;33219;47.410;9.730;2022-11-20T11:12:28;8.80;99.90
47482;DHT22;33219;47.410;9.730;2022-11-20T11:14:57;8.80;99.90
47482;DHT22;33219;47.410;9.730;2022-11-20T11:17:33;8.70;99.90
47482;DHT22;33219;47.410;9.730;2022-11-20T11:20:11;8.60;99.90
47482;DHT22;33219;47.410;9.730;2022-11-20T11:22:42;8.70;99.90
47482;DHT22;33219;47.410;9.730;2022-11-20T11:25:07;8.80;99.90
47482;DHT22;33219;47.410;9.730;2022-11-20T11:27:34;8.80;99.90
47482;DHT22;33219;47.410;9.730;2022-11-20T11:30:11;8.90;99.90
47482;DHT22;33219;47.410;9.730;2022-11-20T11:32:40;8.80;99.90
47482;DHT22;33219;47.410;9.730;2022-11-20T11:35:19;8.80;99.90
47482;DHT22;33219;47.410;9.730;2022-11-20T11:37:47;8.90;99.90
47482;DHT22;33219;47.410;9.730;2022-11-20T11:40:16;9.00;99.90
47482;DHT22;33219;47.410;9.730;2022-11-20T11:43:02;9.10;99.90
47482;DHT22;33219;47.410;9.730;2022-11-20T11:45:30;9.30;99.90
47482;DHT22;33219;47.410;9.730;2022-11-20T11:48:00;9.50;99.90
47482;DHT22;33219;47.410;9.730;2022-11-20T11:50:29;9.60;99.90
47482;DHT22;33219;47.410;9.730;2022-11-20T11:56:03;9.70;99.90
47482;DHT22;33219;47.410;9.730;2022-11-20T11:58:43;9.60;99.90
47482;DHT22;33219;47.410;9.730;2022-11-20T12:01:34;9.40;99.90
47482;DHT22;33219;47.410;9.730;2022-11-20T12:04:23;9.40;99.90
47482;DHT22;33219;47.410;9.730;2022-11-20T12:09:42;9.50;99.90
47482;DHT22;33219;47.410;9.730;2022-11-20T12:12:14;9.60;99.90
47482;DHT22;33219;47.410;9.730;2022-11-20T12:14:42;9.70;99.90
47482;DHT22;33219;47.410;9.730;2022-11-20T12:17:12;9.70;99.90
47482;DHT22;33219;47.410;9.730;2022-11-20T12:19:41;9.80;99.90
47482;DHT22;33219;47.410;9.730;2022-11-20T12:22:24;9.90;99.90
47482;DHT22;33219;47.410;9.730;2022-11-20T12:25:14;9.90;99.90
47482;DHT22;33219;47.410;9.730;2022-11-20T12:30:23;9.80;99.90
47482;DHT22;33219;47.410;9.730;2022-11-20T12:35:52;9.60;99.90
47482;DHT22;33219;47.410;9.730;2022-11-20T12:41:22;9.70;99.90
47482;DHT22;33219;47.410;9.730;2022-11-20T12:50:15;9.50;99.90
47482;DHT22;33219;47.410;9.730;2022-11-20T12:57:49;9.30;99.90
47482;DHT22;33219;47.410;9.730;2022-11-20T13:08:23;9.60;99.60
47482;DHT22;33219;47.410;9.730;2022-11-20T13:16:17;9.60;99.60
47482;DHT22;33219;47.410;9.730;2022-11-20T13:18:45;9.60;99.00
47482;DHT22;33219;47.410;9.730;2022-11-20T13:21:18;9.50;99.00
47482;DHT22;33219;47.410;9.730;2022-11-20T13:23:46;9.40;99.30
47482;DHT22;33219;47.410;9.730;2022-11-20T13:26:24;9.40;99.40
47482;DHT22;33219;47.410;9.730;2022-11-20T13:29:09;9.30;99.70
47482;DHT22;33219;47.410;9.730;2022-11-20T13:31:41;9.30;99.80
47482;DHT22;33219;47.410;9.730;2022-11-20T13:34:14;9.20;99.90
47482;DHT22;33219;47.410;9.730;2022-11-20T13:36:51;9.10;99.90
47482;DHT22;33219;47.410;9.730;2022-11-20T13:39:31;9.10;99.90
47482;DHT22;33219;47.410;9.730;2022-11-20T13:41:58;9.10;99.90
47482;DHT22;33219;47.410;9.730;2022-11-20T13:44:46;9.20;99.80
47482;DHT22;33219;47.410;9.730;2022-11-20T13:47:20;9.10;99.90
47482;DHT22;33219;47.410;9.730;2022-11-20T13:49:48;9.10;99.90
47482;DHT22;33219;47.410;9.730;2022-11-20T13:52:31;9.10;99.90
47482;DHT22;33219;47.410;9.730;2022-11-20T14:00:32;9.00;99.90
47482;DHT22;33219;47.410;9.730;2022-11-20T14:03:15;8.90;99.90
47482;DHT22;33219;47.410;9.730;2022-11-20T14:05:54;8.90;99.90
47482;DHT22;33219;47.410;9.730;2022-11-20T14:08:41;8.80;99.90
47482;DHT22;33219;47.410;9.730;2022-11-20T14:10:48;8.80;99.90
47482;DHT22;33219;47.410;9.730;2022-11-20T14:13:20;8.70;99.90
47482;DHT22;33219;47.410;9.730;2022-11-20T14:15:48;8.60;99.90
47482;DHT22;33219;47.410;9.730;2022-11-20T14:18:21;8.50;99.90
47482;DHT22;33219;47.410;9.730;2022-11-20T14:20:49;8.50;99.90
47482;DHT22;33219;47.410;9.730;2022-11-20T14:23:29;8.40;99.90
47482;DHT22;33219;47.410;9.730;2022-11-20T14:25:57;8.40;99.90
47482;DHT22;33219;47.410;9.730;2022-11-20T14:28:27;8.30;99.90
47482;DHT22;33219;47.410;9.730;2022-11-20T14:30:56;8.20;99.90
47482;DHT22;33219;47.410;9.730;2022-11-20T14:33:26;8.10;99.90
47482;DHT22;33219;47.410;9.730;2022-11-20T14:35:55;8.00;99.90
47482;DHT22;33219;47.410;9.730;2022-11-20T14:38:27;7.90;99.90
47482;DHT22;33219;47.410;9.730;2022-11-20T14:41:07;7.90;99.90
47482;DHT22;33219;47.410;9.730;2022-11-20T14:43:36;7.80;99.90
47482;DHT22;33219;47.410;9.730;2022-11-20T14:46:07;7.80;99.90
47482;DHT22;33219;47.410;9.730;2022-11-20T14:48:46;7.80;99.90
47482;DHT22;33219;47.410;9.730;2022-11-20T14:51:34;7.80;99.90
47482;DHT22;33219;47.410;9.730;2022-11-20T14:54:10;7.80;99.90
47482;DHT22;33219;47.410;9.730;2022-11-20T14:56:38;7.70;99.90
47482;DHT22;33219;47.410;9.730;2022-11-20T14:59:07;7.70;99.90
47482;DHT22;33219;47.410;9.730;2022-11-20T15:01:36;7.60;99.90
47482;DHT22;33219;47.410;9.730;2022-11-20T15:04:10;7.50;99.90
47482;DHT22;33219;47.410;9.730;2022-11-20T15:06:48;7.30;99.90
47482;DHT22;33219;47.410;9.730;2022-11-20T15:09:13;7.20;99.90
47482;DHT22;33219;47.410;9.730;2022-11-20T15:11:51;7.10;99.90
47482;DHT22;33219;47.410;9.730;2022-11-20T15:14:11;7.00;99.90
47482;DHT22;33219;47.410;9.730;2022-11-20T15:16:39;6.90;99.90
47482;DHT22;33219;47.410;9.730;2022-11-20T15:19:16;6.80;99.90
47482;DHT22;33219;47.410;9.730;2022-11-20T15:21:38;6.70;99.90
47482;DHT22;33219;47.410;9.730;2022-11-20T15:24:08;6.60;99.90
47482;DHT22;33219;47.410;9.730;2022-11-20T15:26:37;6.50;99.90
47482;DHT22;33219;47.410;9.730;2022-11-20T15:29:15;6.40;99.90
47482;DHT22;33219;47.410;9.730;2022-11-20T15:31:47;6.30;99.90
47482;DHT22;33219;47.410;9.730;2022-11-20T15:34:17;6.20;99.90
47482;DHT22;33219;47.410;9.730;2022-11-20T15:36:44;6.10;99.90
47482;DHT22;33219;47.410;9.730;2022-11-20T15:39:12;6.00;99.90
47482;DHT22;33219;47.410;9.730;2022-11-20T15:41:40;5.90;99.90
47482;DHT22;33219;47.410;9.730;2022-11-20T15:44:07;5.90;99.90
47482;DHT22;33219;47.410;9.730;2022-11-20T15:46:38;5.80;99.90
47482;DHT22;33219;47.410;9.730;2022-11-20T15:49:13;5.80;99.90
47482;DHT22;33219;47.410;9.730;2022-11-20T15:51:41;5.70;99.90
47482;DHT22;33219;47.410;9.730;2022-11-20T15:54:14;5.70;99.90
47482;DHT22;33219;47.410;9.730;2022-11-20T15:56:44;5.60;99.90
47482;DHT22;33219;47.410;9.730;2022-11-20T15:59:12;5.60;99.90
47482;DHT22;33219;47.410;9.730;2022-11-20T16:01:42;5.50;99.90
47482;DHT22;33219;47.410;9.730;2022-11-20T16:04:11;5.40;99.90
47482;DHT22;33219;47.410;9.730;2022-11-20T16:06:39;5.40;99.90
47482;DHT22;33219;47.410;9.730;2022-11-20T16:09:07;5.30;99.90
47482;DHT22;33219;47.410;9.730;2022-11-20T16:11:36;5.30;99.90
47482;DHT22;33219;47.410;9.730;2022-11-20T16:14:04;5.30;99.90
47482;DHT22;33219;47.410;9.730;2022-11-20T16:16:51;5.20;99.90
47482;DHT22;33219;47.410;9.730;2022-11-20T16:19:22;5.10;99.90
47482;DHT22;33219;47.410;9.730;2022-11-20T16:21:50;5.10;99.90
47482;DHT22;33219;47.410;9.730;2022-11-20T16:24:17;5.10;99.90
47482;DHT22;33219;47.410;9.730;2022-11-20T16:26:47;5.00;99.90
47482;DHT22;33219;47.410;9.730;2022-11-20T16:29:15;5.00;99.90
47482;DHT22;33219;47.410;9.730;2022-11-20T16:31:43;5.00;99.90
47482;DHT22;33219;47.410;9.730;2022-11-20T16:34:15;5.00;99.90
47482;DHT22;33219;47.410;9.730;2022-11-20T16:36:46;5.00;99.90
47482;DHT22;33219;47.410;9.730;2022-11-20T16:39:15;5.00;99.90
47482;DHT22;33219;47.410;9.730;2022-11-20T16:41:42;5.00;99.90
47482;DHT22;33219;47.410;9.730;2022-11-20T16:44:11;5.00;99.90
47482;DHT22;33219;47.410;9.730;2022-11-20T16:46:39;5.00;99.90
47482;DHT22;33219;47.410;9.730;2022-11-20T16:49:11;5.00;99.90
47482;DHT22;33219;47.410;9.730;2022-11-20T16:51:38;5.00;99.90
47482;DHT22;33219;47.410;9.730;2022-11-20T16:54:07;5.00;99.90
47482;DHT22;33219;47.410;9.730;2022-11-20T16:56:36;5.00;99.90
47482;DHT22;33219;47.410;9.730;2022-11-20T16:59:05;4.90;99.90
47482;DHT22;33219;47.410;9.730;2022-11-20T17:01:33;4.90;99.90
47482;DHT22;33219;47.410;9.730;2022-11-20T17:04:04;4.90;99.90
47482;DHT22;33219;47.410;9.730;2022-11-20T17:06:35;4.90;99.90
47482;DHT22;33219;47.410;9.730;2022-11-20T17:09:03;4.90;99.90
47482;DHT22;33219;47.410;9.730;2022-11-20T17:11:32;4.90;99.90
47482;DHT22;33219;47.410;9.730;2022-11-20T17:14:02;4.90;99.90
47482;DHT22;33219;47.410;9.730;2022-11-20T17:16:30;4.90;99.90
47482;DHT22;33219;47.410;9.730;2022-11-20T17:18:59;4.90;99.90
47482;DHT22;33219;47.410;9.730;2022-11-20T17:21:27;4.90;99.90
47482;DHT22;33219;47.410;9.730;2022-11-20T17:23:58;5.00;99.90
47482;DHT22;33219;47.410;9.730;2022-11-20T17:26:25;4.90;99.90
47482;DHT22;33219;47.410;9.730;2022-11-20T17:28:59;4.90;99.90